Ursa Minor — ICGH — position and weather

sailwx.info

Track history (hours):
 
Tides and Currents Weather Stations Pressure Air Temp Water Temp Dewpoint Dewpoint Depression Visibility Wind Speed Wind Dir Waves Ship Positions

Ursa Minor

Last reported at 2015-Jul-05 02:31 UTC. Time now 2015-Jul-06 15:43 UTC.
Position N 37°53' E 015°46'.

Length 205 m; draft 7.8 m.

Type: Ship. MMSI: 247082300.

Date/timePositionNaut miles runAvg speedWind from/ knotsBaromVisibWave heightAir tempDewpointWater temp
2015-Jul-05 02:31N 37°53' E 015°46'1212.3
2015-Jul-05 01:33N 38°02' E 015°36'1313.1
2015-Jul-05 00:33N 38°15' E 015°37'1010.1
2015-Jul-04 23:33N 38°25' E 015°35'1313.1
2015-Jul-04 22:33N 38°36' E 015°27'1513.2
2015-Jul-04 21:26N 38°49' E 015°17'6813.0
2015-Jul-04 16:13N 39°48' E 014°35'913.2
2015-Jul-04 15:33N 39°56' E 014°29'1313.3
2015-Jul-04 14:33N 40°08' E 014°20'1313.2
2015-Jul-04 13:34N 40°19' E 014°12'1312.9
2015-Jul-04 12:33N 40°29' E 014°02'1313.2
2015-Jul-04 11:33N 40°38' E 013°49'1313.3
2015-Jul-04 10:33N 40°46' E 013°35'1313.1
2015-Jul-04 09:33N 40°55' E 013°22'1313.2
2015-Jul-04 08:33N 41°03' E 013°09'3313.2
2015-Jul-04 06:04N 41°24' E 012°35'813.0
2015-Jul-04 05:25N 41°29' E 012°26'3912.6
2015-Jul-04 02:21N 41°55' E 011°47'7912.8
2015-Jul-03 20:11N 42°51' E 010°32'2313.2
2015-Jul-03 18:24N 43°11' E 010°15'1113.1
2015-Jul-03 17:33N 43°20' E 010°08'1313.2
2015-Jul-03 16:33N 43°32' E 009°58'1313.2
2015-Jul-03 15:34N 43°41' E 009°46'1313.4
2015-Jul-03 14:34N 43°51' E 009°34'1313.2
2015-Jul-03 13:34N 44°01' E 009°21'1313.0
2015-Jul-03 12:33N 44°11' E 009°09'1312.8
2015-Jul-03 11:33N 44°20' E 008°58'5 4.8
2015-Jul-03 10:25N 44°24' E 008°52'0 0.0
2015-Jul-03 09:33N 44°24' E 008°52'0 0.0
2015-Jul-03 08:31N 44°24' E 008°52'0 0.0
2015-Jul-03 07:31N 44°24' E 008°52'0 0.0
2015-Jul-03 06:31N 44°24' E 008°52'0 0.0
2015-Jul-03 05:25N 44°24' E 008°52'0 0.0
2015-Jul-03 04:31N 44°24' E 008°52'0 0.0
2015-Jul-03 03:28N 44°24' E 008°52'0 0.0
2015-Jul-03 02:28N 44°24' E 008°52'0 0.0
2015-Jul-03 01:28N 44°24' E 008°52'0 0.2
2015-Jul-03 00:33N 44°24' E 008°52'3 2.8
2015-Jul-02 23:33N 44°23' E 008°55'1111.2
2015-Jul-02 22:33N 44°14' E 009°06'1312.8
2015-Jul-02 21:33N 44°05' E 009°18'1312.7
2015-Jul-02 20:33N 43°56' E 009°30'1212.3
2015-Jul-02 19:34N 43°46' E 009°41'1212.4
2015-Jul-02 18:33N 43°37' E 009°52'1312.5
2015-Jul-02 17:33N 43°27' E 010°03'1312.9
2015-Jul-02 16:33N 43°16' E 010°12'1312.8
2015-Jul-02 15:33N 43°05' E 010°21'1412.7
2015-Jul-02 14:24N 42°52' E 010°30'13812.7
2015-Jul-02 03:33N 41°17' E 012°45'1312.7
2015-Jul-02 02:33N 41°09' E 012°58'1312.8
2015-Jul-02 01:33N 41°02' E 013°11'1312.8
2015-Jul-02 00:33N 40°54' E 013°25'1312.6
2015-Jul-01 23:32N 40°45' E 013°37'1312.7
2015-Jul-01 22:33N 40°37' E 013°50'1312.9
2015-Jul-01 21:33N 40°29' E 014°03'1312.5
2015-Jul-01 20:33N 40°19' E 014°12'1312.8
2015-Jul-01 19:33N 40°07' E 014°20'1312.6
2015-Jul-01 18:33N 39°57' E 014°29'1212.4
2015-Jul-01 17:33N 39°46' E 014°36'1212.0
2015-Jul-01 16:33N 39°35' E 014°44'1312.4
2015-Jul-01 15:29N 39°23' E 014°52'5112.8
2015-Jul-01 11:31N 38°39' E 015°25'1312.6
2015-Jul-01 10:28N 38°28' E 015°34'1112.5
2015-Jul-01 09:34N 38°19' E 015°42'9 9.1
2015-Jul-01 08:33N 38°10' E 015°37'1211.7
2015-Jul-01 07:33N 37°59' E 015°38'1311.9
2015-Jul-01 06:30N 37°53' E 015°52'  
Track history (hours):
 
Tides and Currents Weather Stations Pressure Air Temp Water Temp Dewpoint Dewpoint Depression Visibility Wind Speed Wind Dir Waves Ship Positions

Ursa Minor

Last reported at 2015-Jul-05 02:31 UTC. Time now 2015-Jul-06 15:43 UTC.
Position N 37°53' E 015°46'.

Length 205 m; draft 7.8 m.

Type: Ship. MMSI: 247082300.

Date/timePositionNaut miles runAvg speedWind from/ knotsBaromVisibWave heightAir tempDewpointWater temp
2015-Jul-05 02:31N 37°53' E 015°46'1212.3
2015-Jul-05 01:33N 38°02' E 015°36'1313.1
2015-Jul-05 00:33N 38°15' E 015°37'1010.1
2015-Jul-04 23:33N 38°25' E 015°35'1313.1
2015-Jul-04 22:33N 38°36' E 015°27'1513.2
2015-Jul-04 21:26N 38°49' E 015°17'6813.0
2015-Jul-04 16:13N 39°48' E 014°35'913.2
2015-Jul-04 15:33N 39°56' E 014°29'1313.3
2015-Jul-04 14:33N 40°08' E 014°20'1313.2
2015-Jul-04 13:34N 40°19' E 014°12'1312.9
2015-Jul-04 12:33N 40°29' E 014°02'1313.2
2015-Jul-04 11:33N 40°38' E 013°49'1313.3
2015-Jul-04 10:33N 40°46' E 013°35'1313.1
2015-Jul-04 09:33N 40°55' E 013°22'1313.2
2015-Jul-04 08:33N 41°03' E 013°09'3313.2
2015-Jul-04 06:04N 41°24' E 012°35'813.0
2015-Jul-04 05:25N 41°29' E 012°26'3912.6
2015-Jul-04 02:21N 41°55' E 011°47'7912.8
2015-Jul-03 20:11N 42°51' E 010°32'2313.2
2015-Jul-03 18:24N 43°11' E 010°15'1113.1
2015-Jul-03 17:33N 43°20' E 010°08'1313.2
2015-Jul-03 16:33N 43°32' E 009°58'1313.2
2015-Jul-03 15:34N 43°41' E 009°46'1313.4
2015-Jul-03 14:34N 43°51' E 009°34'1313.2
2015-Jul-03 13:34N 44°01' E 009°21'1313.0
2015-Jul-03 12:33N 44°11' E 009°09'1312.8
2015-Jul-03 11:33N 44°20' E 008°58'5 4.8
2015-Jul-03 10:25N 44°24' E 008°52'0 0.0
2015-Jul-03 09:33N 44°24' E 008°52'0 0.0
2015-Jul-03 08:31N 44°24' E 008°52'0 0.0
2015-Jul-03 07:31N 44°24' E 008°52'0 0.0
2015-Jul-03 06:31N 44°24' E 008°52'0 0.0
2015-Jul-03 05:25N 44°24' E 008°52'0 0.0
2015-Jul-03 04:31N 44°24' E 008°52'0 0.0
2015-Jul-03 03:28N 44°24' E 008°52'0 0.0
2015-Jul-03 02:28N 44°24' E 008°52'0 0.0
2015-Jul-03 01:28N 44°24' E 008°52'0 0.2
2015-Jul-03 00:33N 44°24' E 008°52'3 2.8
2015-Jul-02 23:33N 44°23' E 008°55'1111.2
2015-Jul-02 22:33N 44°14' E 009°06'1312.8
2015-Jul-02 21:33N 44°05' E 009°18'1312.7
2015-Jul-02 20:33N 43°56' E 009°30'1212.3
2015-Jul-02 19:34N 43°46' E 009°41'1212.4
2015-Jul-02 18:33N 43°37' E 009°52'1312.5
2015-Jul-02 17:33N 43°27' E 010°03'1312.9
2015-Jul-02 16:33N 43°16' E 010°12'1312.8
2015-Jul-02 15:33N 43°05' E 010°21'1412.7
2015-Jul-02 14:24N 42°52' E 010°30'13812.7
2015-Jul-02 03:33N 41°17' E 012°45'1312.7
2015-Jul-02 02:33N 41°09' E 012°58'1312.8
2015-Jul-02 01:33N 41°02' E 013°11'1312.8
2015-Jul-02 00:33N 40°54' E 013°25'1312.6
2015-Jul-01 23:32N 40°45' E 013°37'1312.7
2015-Jul-01 22:33N 40°37' E 013°50'1312.9
2015-Jul-01 21:33N 40°29' E 014°03'1312.5
2015-Jul-01 20:33N 40°19' E 014°12'1312.8
2015-Jul-01 19:33N 40°07' E 014°20'1312.6
2015-Jul-01 18:33N 39°57' E 014°29'1212.4
2015-Jul-01 17:33N 39°46' E 014°36'1212.0
2015-Jul-01 16:33N 39°35' E 014°44'1312.4
2015-Jul-01 15:29N 39°23' E 014°52'5112.8
2015-Jul-01 11:31N 38°39' E 015°25'1312.6
2015-Jul-01 10:28N 38°28' E 015°34'1112.5
2015-Jul-01 09:34N 38°19' E 015°42'9 9.1
2015-Jul-01 08:33N 38°10' E 015°37'1211.7
2015-Jul-01 07:33N 37°59' E 015°38'1311.9
2015-Jul-01 06:30N 37°53' E 015°52'  

Dump ship's entire track history